Terminal Aerodrome Forecast
Issued by NWS

Home | Current Version | Previous Version | Text Only | Print | Product List | Glossary On
Versions: 1 2 3 4 5 6 7 8 9 10 11 12 13 14 15 16 17 18 19 20 21 22 23 24 25 26 27
000
FTUS42 KGSP 231032 AAA
TAFHKY
TAF AMD
KHKY 231032Z 2311/2406 21003KT 6SM BR BKN010
      TEMPO 2312/2313 3SM BR BKN004
     FM231300 23005KT P6SM BKN025
     FM231500 VRB02KT P6SM VCTS SCT060CB BKN200
     FM240400 VRB02KT 6SM BR BKN100=

USA.gov is the U.S. government's official web portal to all federal, state and local government web resources and services.